Dades meteomassalio
Diari Summary for Noviembre 15, 2017 Units:  Metric    English   Both
« Previous Day
Next Day »
Diari Semanal Mensual Anual Personalitzat
  Maxima: Minima: Mijana:
Temperatura: 13.9 °C -3.9 °C 2.9 °C
Rosada: -1.5 °C -8.8 °C -6 °C
Humitat: 77 % 31 % 55 %
Velocitat del vent: 18.5 km/h 0.0 km/h 1.9 km/h
Racha vent: 18.5 km/h - -
Vent:- - WSW
Pressio: 1025.3 hPa 1021.6 hPa -
Pluja: 0.0 mm    
Historical Graphs
 
 
Tabular Data for Noviembre 15, 2017
Time Temperature Dew Point Pressure Wind Wind Speed Wind Gust Humidity Rainfall Rate (Hourly) solar Conditions
00:00 -2.2 °C -8.6 °C 1024.9 hPa Calm     62 % 0.0 mm 0.0 W/m2 CLR
00:05 -2.2 °C -8.3 °C 1024.9 hPa WSW 7.4 km/h 7.4 km/h 63 % 0.0 mm 0.0 W/m2 CLR
00:10 -2.8 °C -8.4 °C 1024.9 hPa WSW 7.4 km/h 7.4 km/h 65 % 0.0 mm 0.0 W/m2 CLR
00:15 -2.8 °C -8.8 °C 1024.9 hPa Calm   0.2 km/h 63 % 0.0 mm 0.0 W/m2 CLR
00:20 -2.8 °C -8.8 °C 1024.9 hPa Calm     63 % 0.0 mm 0.0 W/m2 CLR
00:25 -2.8 °C -8.7 °C 1025.3 hPa Calm     64 % 0.0 mm 0.0 W/m2 CLR
00:30 -2.8 °C -8.4 °C 1025.3 hPa Calm     65 % 0.0 mm 0.0 W/m2 CLR
00:35 -2.8 °C -8.3 °C 1025.3 hPa Calm     66 % 0.0 mm 0.0 W/m2 CLR
00:40 -2.8 °C -8.3 °C 1025.3 hPa Calm     66 % 0.0 mm 0.0 W/m2 CLR
00:45 -2.8 °C -8.3 °C 1024.9 hPa Calm     66 % 0.0 mm 0.0 W/m2 CLR
00:50 -2.8 °C -8.1 °C 1024.9 hPa Calm     67 % 0.0 mm 0.0 W/m2 CLR
00:55 -2.8 °C -8.1 °C 1024.9 hPa SW 3.7 km/h   67 % 0.0 mm 0.0 W/m2 CLR
01:00 -2.8 °C -8.1 °C 1024.9 hPa Calm     67 % 0.0 mm 0.0 W/m2 CLR
01:05 -2.8 °C -7.9 °C 1024.9 hPa WSW 3.7 km/h 3.7 km/h 68 % 0.0 mm 0.0 W/m2 CLR
01:10 -2.8 °C -7.9 °C 1024.9 hPa WSW 5.6 km/h 5.6 km/h 68 % 0.0 mm 0.0 W/m2 CLR
01:15 -2.8 °C -7.9 °C 1024.9 hPa South 5.6 km/h 5.6 km/h 68 % 0.0 mm 0.0 W/m2 CLR
01:20 -2.8 °C -7.7 °C 1025.3 hPa Calm     69 % 0.0 mm 0.0 W/m2 CLR
01:25 -2.8 °C -7.9 °C 1025.3 hPa Calm     68 % 0.0 mm 0.0 W/m2 CLR
01:30 -2.8 °C -7.9 °C 1025.3 hPa Calm     68 % 0.0 mm 0.0 W/m2 CLR
01:35 -3.3 °C -8.4 °C 1025.3 hPa Calm     68 % 0.0 mm 0.0 W/m2 CLR
01:40 -3.3 °C -8.4 °C 1025.3 hPa Calm     68 % 0.0 mm 0.0 W/m2 CLR
01:45 -3.3 °C -8.2 °C 1024.9 hPa Calm     69 % 0.0 mm 0.0 W/m2 CLR
01:50 -3.3 °C -8.4 °C 1024.9 hPa Calm     68 % 0.0 mm 0.0 W/m2 CLR
01:55 -3.3 °C -8.2 °C 1024.9 hPa Calm   0.3 km/h 69 % 0.0 mm 0.0 W/m2 CLR
02:00 -3.3 °C -8.2 °C 1024.9 hPa WSW 4.8 km/h 4.8 km/h 69 % 0.0 mm 0.0 W/m2 CLR
02:05 -3.3 °C -8.0 °C 1024.9 hPa West 7.4 km/h 7.4 km/h 70 % 0.0 mm 0.0 W/m2 CLR
02:10 -3.3 °C -8.0 °C 1024.9 hPa West 1.9 km/h 1.9 km/h 70 % 0.0 mm 0.0 W/m2 CLR
02:15 -3.3 °C -8.0 °C 1024.9 hPa West 5.6 km/h 5.6 km/h 70 % 0.0 mm 0.0 W/m2 CLR
02:20 -3.3 °C -7.8 °C 1024.9 hPa West 3.7 km/h 3.7 km/h 71 % 0.0 mm 0.0 W/m2 CLR
02:25 -3.3 °C -7.8 °C 1024.9 hPa Calm     71 % 0.0 mm 0.0 W/m2 CLR
02:30 -3.3 °C -7.8 °C 1024.9 hPa Calm     71 % 0.0 mm 0.0 W/m2 CLR
02:35 -3.9 °C -8.2 °C 1024.9 hPa Calm     72 % 0.0 mm 0.0 W/m2 CLR
02:40 -3.3 °C -7.7 °C 1024.9 hPa West 3.7 km/h 3.7 km/h 72 % 0.0 mm 0.0 W/m2 CLR
02:45 -3.3 °C -7.7 °C 1024.9 hPa West 1.9 km/h 1.9 km/h 72 % 0.0 mm 0.0 W/m2 CLR
02:50 -3.3 °C -7.7 °C 1024.9 hPa West 7.4 km/h 7.4 km/h 72 % 0.0 mm 0.0 W/m2 CLR
02:55 -3.9 °C -8.2 °C 1024.9 hPa West 6.4 km/h 6.4 km/h 72 % 0.0 mm 0.0 W/m2 CLR
03:00 -3.9 °C -8.4 °C 1024.9 hPa Calm     71 % 0.0 mm 0.0 W/m2 CLR
03:05 -3.9 °C -8.4 °C 1024.9 hPa West 7.4 km/h 7.4 km/h 71 % 0.0 mm 0.0 W/m2 CLR
03:10 -3.9 °C -8.4 °C 1024.9 hPa Calm     71 % 0.0 mm 0.0 W/m2 CLR
03:15 -3.9 °C -8.4 °C 1024.9 hPa Calm     71 % 0.0 mm 0.0 W/m2 CLR
03:20 -3.9 °C -8.4 °C 1024.9 hPa Calm     71 % 0.0 mm 0.0 W/m2 CLR
03:25 -3.9 °C -8.4 °C 1024.9 hPa Calm     71 % 0.0 mm 0.0 W/m2 CLR
03:30 -3.9 °C -8.4 °C 1024.9 hPa Calm     71 % 0.0 mm 0.0 W/m2 CLR
03:35 -3.9 °C -8.4 °C 1024.9 hPa West 1.9 km/h 1.9 km/h 71 % 0.0 mm 0.0 W/m2 CLR
03:40 -3.9 °C -8.4 °C 1024.6 hPa Calm     71 % 0.0 mm 0.0 W/m2 CLR
03:45 -3.9 °C -8.4 °C 1024.6 hPa Calm     71 % 0.0 mm 0.0 W/m2 CLR
03:50 -3.9 °C -8.2 °C 1024.6 hPa Calm     72 % 0.0 mm 0.0 W/m2 CLR
03:55 -3.9 °C -8.4 °C 1024.6 hPa Calm     71 % 0.0 mm 0.0 W/m2 CLR
04:01 -3.9 °C -8.2 °C 1024.6 hPa Calm     72 % 0.0 mm 0.0 W/m2 CLR
04:11 -3.9 °C -8.2 °C 1024.6 hPa Calm     72 % 0.0 mm 0.0 W/m2 CLR
04:16 -3.9 °C -8.4 °C 1024.6 hPa Calm     71 % 0.0 mm 0.0 W/m2 CLR
04:21 -3.9 °C -8.2 °C 1024.6 hPa Calm     72 % 0.0 mm 0.0 W/m2 CLR
04:22 -3.9 °C -8.2 °C 1024.6 hPa Calm     72 % 0.0 mm 0.0 W/m2 CLR
04:24 -3.9 °C -8.2 °C 1024.3 hPa Calm     72 % 0.0 mm 0.0 W/m2 CLR
04:27 -3.9 °C -8.2 °C 1024.3 hPa Calm     72 % 0.0 mm 0.0 W/m2 CLR
04:32 -3.3 °C -7.5 °C 1024.6 hPa Calm     73 % 0.0 mm 0.0 W/m2 CLR
04:37 -3.3 °C -7.5 °C 1024.3 hPa Calm     73 % 0.0 mm 0.0 W/m2 CLR
04:42 -3.3 °C -7.3 °C 1024.3 hPa Calm     74 % 0.0 mm 0.0 W/m2 CLR
04:47 -3.9 °C -7.8 °C 1024.3 hPa West 3.7 km/h 3.7 km/h 74 % 0.0 mm 0.0 W/m2 CLR
04:52 -3.9 °C -7.8 °C 1024.3 hPa Calm     74 % 0.0 mm 0.0 W/m2 CLR
04:57 -3.9 °C -8.0 °C 1024.3 hPa Calm     73 % 0.0 mm 0.0 W/m2 CLR
05:02 -3.9 °C -8.0 °C 1024.3 hPa Calm     73 % 0.0 mm 0.0 W/m2 CLR
05:07 -3.9 °C -8.0 °C 1024.3 hPa Calm     73 % 0.0 mm 0.0 W/m2 CLR
05:12 -3.9 °C -7.8 °C 1024.3 hPa Calm     74 % 0.0 mm 0.0 W/m2 CLR
05:17 -3.9 °C -7.8 °C 1024.3 hPa Calm     74 % 0.0 mm 0.0 W/m2 CLR
05:22 -3.9 °C -7.8 °C 1024.3 hPa Calm     74 % 0.0 mm 0.0 W/m2 CLR
05:27 -3.9 °C -7.7 °C 1024.3 hPa Calm     75 % 0.0 mm 0.0 W/m2 CLR
05:32 -3.9 °C -7.8 °C 1024.3 hPa Calm     74 % 0.0 mm 0.0 W/m2 CLR
05:37 -3.9 °C -7.8 °C 1024.3 hPa Calm     74 % 0.0 mm 0.0 W/m2 CLR
05:42 -3.9 °C -7.8 °C 1024.3 hPa Calm     74 % 0.0 mm 0.0 W/m2 CLR
05:47 -3.9 °C -7.7 °C 1024.3 hPa Calm     75 % 0.0 mm 0.0 W/m2 CLR
05:52 -3.9 °C -7.8 °C 1024.3 hPa Calm     74 % 0.0 mm 0.0 W/m2 CLR
05:57 -3.9 °C -7.8 °C 1024.3 hPa Calm     74 % 0.0 mm 0.0 W/m2 CLR
06:02 -3.9 °C -7.5 °C 1024.3 hPa Calm     76 % 0.0 mm 0.0 W/m2 CLR
06:07 -3.9 °C -7.5 °C 1024.3 hPa West 7.4 km/h 7.4 km/h 76 % 0.0 mm 0.0 W/m2 CLR
06:12 -3.9 °C -7.7 °C 1024.3 hPa West 7.4 km/h 7.4 km/h 75 % 0.0 mm 0.0 W/m2 CLR
06:17 -3.9 °C -7.7 °C 1024.3 hPa West 5.6 km/h 5.6 km/h 75 % 0.0 mm 0.0 W/m2 CLR
06:22 -3.9 °C -7.7 °C 1024.3 hPa WSW 5.6 km/h 5.6 km/h 75 % 0.0 mm 0.0 W/m2 CLR
06:27 -3.3 °C -7.3 °C 1024.3 hPa SW 3.7 km/h   74 % 0.0 mm 0.0 W/m2 CLR
06:32 -3.3 °C -7.3 °C 1024.3 hPa Calm     74 % 0.0 mm 0.0 W/m2 CLR
06:37 -3.3 °C -7.1 °C 1024.3 hPa WSW 1.9 km/h   75 % 0.0 mm 0.0 W/m2 CLR
06:42 -3.3 °C -7.3 °C 1024.3 hPa WSW 3.7 km/h 3.7 km/h 74 % 0.0 mm 0.0 W/m2 CLR
06:47 -3.3 °C -7.1 °C 1024.3 hPa WSW 5.6 km/h 5.6 km/h 75 % 0.0 mm 0.0 W/m2 CLR
06:52 -2.8 °C -6.6 °C 1024.3 hPa WSW 3.2 km/h 3.2 km/h 75 % 0.0 mm 0.0 W/m2 CLR
06:57 -3.3 °C -7.1 °C 1024.3 hPa WSW 1.6 km/h 1.6 km/h 75 % 0.0 mm 0.0 W/m2 CLR
07:02 -3.3 °C -6.9 °C 1024.6 hPa Calm     76 % 0.0 mm 0.0 W/m2 CLR
07:07 -3.3 °C -6.8 °C 1024.6 hPa Calm     77 % 0.0 mm 0.0 W/m2 CLR
07:12 -3.3 °C -6.8 °C 1024.6 hPa WSW 5.6 km/h 5.6 km/h 77 % 0.0 mm 0.0 W/m2 CLR
07:17 -3.3 °C -6.8 °C 1024.6 hPa WSW 5.6 km/h   77 % 0.0 mm 0.0 W/m2 CLR
07:22 -3.3 °C -6.8 °C 1024.6 hPa WSW 7.4 km/h 7.4 km/h 77 % 0.0 mm 0.0 W/m2 CLR
07:27 -3.3 °C -6.8 °C 1024.6 hPa WSW 4.8 km/h 4.8 km/h 77 % 0.0 mm 0.0 W/m2 CLR
07:32 -3.3 °C -6.8 °C 1024.6 hPa WSW 5.6 km/h 5.6 km/h 77 % 0.0 mm 0.0 W/m2 CLR
07:37 -3.3 °C -6.8 °C 1024.6 hPa WSW 1.9 km/h   77 % 0.0 mm 5.0 W/m2 CLR
07:42 -3.9 °C -7.5 °C 1024.6 hPa Calm   0.3 km/h 76 % 0.0 mm 11.0 W/m2 OVC
07:47 -3.9 °C -7.5 °C 1024.6 hPa Calm     76 % 0.0 mm 12.0 W/m2 OVC
07:48 -3.9 °C -7.5 °C 1024.6 hPa Calm     76 % 0.0 mm 12.0 W/m2 OVC
07:53 -3.9 °C -7.3 °C 1024.6 hPa Calm     77 % 0.0 mm 14.0 W/m2 OVC
07:58 -3.9 °C -7.3 °C 1024.6 hPa WSW 3.2 km/h 3.2 km/h 77 % 0.0 mm 19.0 W/m2 OVC
08:03 -3.3 °C -6.8 °C 1024.6 hPa WSW 3.7 km/h 3.7 km/h 77 % 0.0 mm 23.0 W/m2 OVC
08:08 -3.3 °C -6.8 °C 1024.9 hPa Calm     77 % 0.0 mm 32.0 W/m2 OVC
08:13 -3.3 °C -6.8 °C 1024.9 hPa Calm     77 % 0.0 mm 39.0 W/m2 OVC
08:18 -3.3 °C -6.9 °C 1024.9 hPa Calm     76 % 0.0 mm 51.0 W/m2 OVC
08:23 -2.8 °C -6.6 °C 1024.9 hPa Calm     75 % 0.0 mm 70.0 W/m2 OVC
08:28 -2.8 °C -6.9 °C 1024.9 hPa Calm     73 % 0.0 mm 86.0 W/m2 OVC
08:33 -2.8 °C -6.9 °C 1024.9 hPa Calm     73 % 0.0 mm 84.0 W/m2 OVC
08:38 -2.2 °C -6.4 °C 1024.9 hPa Calm     73 % 0.0 mm 107.0 W/m2 OVC
08:43 -1.7 °C -6.1 °C 1024.9 hPa Calm     72 % 0.0 mm 86.0 W/m2 OVC
08:48 -1.7 °C -6.2 °C 1024.9 hPa Calm     71 % 0.0 mm 107.0 W/m2 OVC
08:53 -1.7 °C -6.4 °C 1024.9 hPa Calm     70 % 0.0 mm 102.0 W/m2 SCT
08:58 -1.1 °C -5.9 °C 1024.6 hPa Calm     70 % 0.0 mm 109.0 W/m2 CLR
09:03 -1.1 °C -6.1 °C 1024.9 hPa Calm     69 % 0.0 mm 111.0 W/m2 CLR
09:08 -0.6 °C -5.6 °C 1024.9 hPa Calm     69 % 0.0 mm 118.0 W/m2 CLR
09:13 -0.6 °C -5.7 °C 1024.9 hPa Calm     68 % 0.0 mm 120.0 W/m2 CLR
09:18 0.0 °C -5.4 °C 1024.9 hPa Calm     67 % 0.0 mm 139.0 W/m2 CLR
09:23 0.0 °C -5.4 °C 1024.9 hPa Calm     67 % 0.0 mm 156.0 W/m2 CLR
09:28 0.6 °C -5.1 °C 1024.9 hPa Calm     66 % 0.0 mm 181.0 W/m2 CLR
09:33 1.1 °C -4.7 °C 1024.9 hPa Calm     65 % 0.0 mm 262.0 W/m2 CLR
09:38 1.1 °C -4.7 °C 1024.9 hPa Calm     65 % 0.0 mm 285.0 W/m2 CLR
09:43 2.2 °C -4.1 °C 1024.9 hPa Calm     63 % 0.0 mm 225.0 W/m2 CLR
09:48 2.8 °C -3.8 °C 1024.9 hPa Calm     62 % 0.0 mm 221.0 W/m2 CLR
09:53 2.8 °C -4.0 °C 1024.9 hPa Calm     61 % 0.0 mm 207.0 W/m2 CLR
09:58 2.8 °C -4.0 °C 1024.9 hPa Calm     61 % 0.0 mm 207.0 W/m2 CLR
10:01 3.3 °C -3.5 °C 1024.9 hPa Calm     61 % 0.0 mm 243.0 W/m2 CLR
10:06 3.9 °C -3.2 °C 1024.9 hPa Calm     60 % 0.0 mm 271.0 W/m2 CLR
10:11 4.4 °C -2.9 °C 1024.9 hPa Calm     59 % 0.0 mm 309.0 W/m2 CLR
10:16 5.0 °C -2.6 °C 1024.9 hPa Calm     58 % 0.0 mm 313.0 W/m2 CLR
10:21 5.6 °C -2.3 °C 1024.9 hPa Calm     57 % 0.0 mm 359.0 W/m2 CLR
10:26 5.6 °C -2.8 °C 1024.9 hPa Calm     55 % 0.0 mm 299.0 W/m2 CLR
10:31 6.1 °C -2.5 °C 1024.9 hPa Calm     54 % 0.0 mm 341.0 W/m2 CLR
10:36 6.7 °C -2.2 °C 1024.9 hPa Calm     53 % 0.0 mm 348.0 W/m2 CLR
10:41 7.2 °C -2.0 °C 1024.9 hPa Calm     52 % 0.0 mm 278.0 W/m2 CLR
10:46 7.8 °C -1.5 °C 1024.9 hPa Calm     52 % 0.0 mm 353.0 W/m2 CLR
10:51 7.8 °C -2.0 °C 1024.9 hPa Calm     50 % 0.0 mm 339.0 W/m2 CLR
11:01 8.9 °C -1.8 °C 1024.9 hPa Calm     47 % 0.0 mm 287.0 W/m2 CLR
11:06 8.9 °C -2.4 °C 1024.9 hPa Calm     45 % 0.0 mm 360.0 W/m2 CLR
11:11 9.4 °C -2.2 °C 1024.9 hPa Calm     44 % 0.0 mm 301.0 W/m2 CLR
11:16 9.4 °C -2.2 °C 1024.6 hPa Calm     44 % 0.0 mm 387.0 W/m2 CLR
11:21 10.0 °C -2.7 °C 1024.6 hPa NW 11.1 km/h 11.1 km/h 41 % 0.0 mm 323.0 W/m2 CLR
11:26 10.6 °C -2.5 °C 1024.6 hPa NNE 11.3 km/h 11.3 km/h 40 % 0.0 mm 269.0 W/m2 CLR
11:31 10.6 °C -2.8 °C 1024.9 hPa NNW 11.1 km/h 11.1 km/h 39 % 0.0 mm 348.0 W/m2 CLR
11:36 11.1 °C -2.3 °C 1024.6 hPa NW 13.0 km/h 13.0 km/h 39 % 0.0 mm 367.0 W/m2 CLR
11:41 11.1 °C -2.7 °C 1024.6 hPa NNW 11.1 km/h 11.1 km/h 38 % 0.0 mm 452.0 W/m2 CLR
11:46 11.7 °C -2.2 °C 1024.6 hPa NNW 11.3 km/h 11.3 km/h 38 % 0.0 mm 445.0 W/m2 CLR
11:51 11.7 °C -2.6 °C 1024.6 hPa NW 18.5 km/h 18.5 km/h 37 % 0.0 mm 418.0 W/m2 CLR
11:56 11.7 °C -2.9 °C 1024.6 hPa NW 14.8 km/h 14.8 km/h 36 % 0.0 mm 415.0 W/m2 CLR
12:01 11.7 °C -2.9 °C 1024.6 hPa NW 13.0 km/h 13.0 km/h 36 % 0.0 mm 403.0 W/m2 CLR
12:06 11.7 °C -2.9 °C 1024.3 hPa NNW 14.8 km/h 14.8 km/h 36 % 0.0 mm 408.0 W/m2 CLR
12:11 11.7 °C -2.9 °C 1024.3 hPa North 11.1 km/h 11.1 km/h 36 % 0.0 mm 269.0 W/m2 CLR
12:16 11.7 °C -3.3 °C 1024.3 hPa NW 13.0 km/h 13.0 km/h 35 % 0.0 mm 311.0 W/m2 CLR
12:21 11.7 °C -3.3 °C 1024.3 hPa NW 3.2 km/h 3.2 km/h 35 % 0.0 mm 338.0 W/m2 CLR
12:26 11.7 °C -3.3 °C 1023.9 hPa North 13.0 km/h 13.0 km/h 35 % 0.0 mm 374.0 W/m2 CLR
12:31 11.7 °C -3.3 °C 1023.9 hPa NNW 11.3 km/h 11.3 km/h 35 % 0.0 mm 471.0 W/m2 CLR
12:36 12.2 °C -3.2 °C 1023.9 hPa NNE 14.8 km/h 14.8 km/h 34 % 0.0 mm 508.0 W/m2 CLR
12:41 12.2 °C -3.2 °C 1023.6 hPa NNW 14.8 km/h 14.8 km/h 34 % 0.0 mm 478.0 W/m2 CLR
12:46 12.2 °C -3.2 °C 1023.6 hPa North 14.8 km/h 14.8 km/h 34 % 0.0 mm 541.0 W/m2 CLR
12:51 12.2 °C -2.8 °C 1023.6 hPa North 13.0 km/h 13.0 km/h 35 % 0.0 mm 540.0 W/m2 CLR
12:52 12.2 °C -3.2 °C 1023.6 hPa NNE 13.0 km/h 13.0 km/h 34 % 0.0 mm 538.0 W/m2 CLR
12:57 12.8 °C -3.1 °C 1023.6 hPa NW 7.4 km/h 7.4 km/h 33 % 0.0 mm 522.0 W/m2 CLR
13:02 12.8 °C -3.1 °C 1023.2 hPa North 16.7 km/h 16.7 km/h 33 % 0.0 mm 520.0 W/m2 CLR
13:07 12.8 °C -3.1 °C 1023.2 hPa Calm     33 % 0.0 mm 517.0 W/m2 CLR
13:12 12.8 °C -3.1 °C 1022.9 hPa North 14.8 km/h 14.8 km/h 33 % 0.0 mm 515.0 W/m2 CLR
13:17 12.8 °C -3.6 °C 1022.9 hPa NNW 13.0 km/h 13.0 km/h 32 % 0.0 mm 513.0 W/m2 CLR
13:22 12.8 °C -3.1 °C 1022.9 hPa Calm     33 % 0.0 mm 508.0 W/m2 CLR
13:28 13.3 °C -3.1 °C 1022.9 hPa Calm     32 % 0.0 mm 499.0 W/m2 CLR
13:32 13.3 °C -3.1 °C 1022.9 hPa NNW 13.0 km/h 13.0 km/h 32 % 0.0 mm 475.0 W/m2 CLR
13:33 13.3 °C -3.1 °C 1022.9 hPa NNW 13.0 km/h 13.0 km/h 32 % 0.0 mm 473.0 W/m2 CLR
13:38 13.3 °C -3.1 °C 1022.6 hPa NNW 11.1 km/h 11.1 km/h 32 % 0.0 mm 476.0 W/m2 CLR
13:43 13.3 °C -3.1 °C 1022.6 hPa Calm     32 % 0.0 mm 490.0 W/m2 CLR
13:48 13.9 °C -2.6 °C 1022.6 hPa NW 11.3 km/h 11.3 km/h 32 % 0.0 mm 476.0 W/m2 CLR
13:53 13.3 °C -3.1 °C 1022.6 hPa Calm     32 % 0.0 mm 413.0 W/m2 CLR
13:58 13.3 °C -3.1 °C 1022.6 hPa Calm     32 % 0.0 mm 462.0 W/m2 CLR
14:03 13.3 °C -3.1 °C 1022.2 hPa Calm     32 % 0.0 mm 475.0 W/m2 CLR
14:08 13.3 °C -2.6 °C 1022.2 hPa Calm     33 % 0.0 mm 441.0 W/m2 CLR
14:13 13.3 °C -3.1 °C 1022.2 hPa Calm     32 % 0.0 mm 457.0 W/m2 CLR
14:18 13.3 °C -3.1 °C 1022.2 hPa ENE 3.7 km/h   32 % 0.0 mm 464.0 W/m2 CLR
14:23 13.9 °C -2.6 °C 1021.9 hPa NE 13.0 km/h 13.0 km/h 32 % 0.0 mm 424.0 W/m2 CLR
14:28 13.9 °C -3.0 °C 1022.2 hPa Calm     31 % 0.0 mm 345.0 W/m2 CLR
14:33 13.3 °C -3.4 °C 1022.2 hPa Calm     31 % 0.0 mm 408.0 W/m2 CLR
14:39 13.3 °C -3.1 °C 1021.9 hPa Calm     32 % 0.0 mm 401.0 W/m2 CLR
14:43 13.3 °C -3.4 °C 1021.9 hPa Calm     31 % 0.0 mm 417.0 W/m2 CLR
14:49 13.9 °C -3.0 °C 1021.9 hPa Calm     31 % 0.0 mm 362.0 W/m2 CLR
14:54 13.9 °C -3.0 °C 1021.9 hPa Calm     31 % 0.0 mm 367.0 W/m2 CLR
14:59 13.9 °C -3.0 °C 1021.9 hPa East 1.9 km/h   31 % 0.0 mm 346.0 W/m2 CLR
15:04 13.9 °C -3.0 °C 1021.9 hPa East 1.9 km/h   31 % 0.0 mm 297.0 W/m2 CLR
15:09 13.3 °C -3.1 °C 1021.9 hPa Calm     32 % 0.0 mm 297.0 W/m2 CLR
15:14 13.3 °C -3.4 °C 1021.9 hPa Calm     31 % 0.0 mm 350.0 W/m2 CLR
15:19 13.9 °C -3.0 °C 1021.6 hPa Calm     31 % 0.0 mm 299.0 W/m2 CLR
15:24 13.9 °C -3.0 °C 1021.9 hPa Calm     31 % 0.0 mm 260.0 W/m2 CLR
15:29 13.3 °C -3.4 °C 1021.6 hPa Calm     31 % 0.0 mm 218.0 W/m2 CLR
15:34 13.3 °C -3.4 °C 1021.6 hPa Calm     31 % 0.0 mm 248.0 W/m2 CLR
15:39 13.3 °C -3.1 °C 1021.6 hPa Calm     32 % 0.0 mm 239.0 W/m2 CLR
15:44 13.3 °C -3.1 °C 1021.6 hPa Calm     32 % 0.0 mm 220.0 W/m2 CLR
15:49 13.3 °C -3.1 °C 1021.6 hPa Calm     32 % 0.0 mm 211.0 W/m2 CLR
15:54 13.3 °C -3.4 °C 1021.6 hPa Calm     31 % 0.0 mm 206.0 W/m2 CLR
15:59 13.3 °C -3.4 °C 1021.6 hPa Calm     31 % 0.0 mm 167.0 W/m2 CLR
16:04 13.3 °C -3.4 °C 1021.6 hPa Calm     31 % 0.0 mm 120.0 W/m2 CLR
16:09 12.8 °C -3.9 °C 1021.6 hPa Calm     31 % 0.0 mm 107.0 W/m2 CLR
16:14 12.8 °C -3.6 °C 1021.6 hPa Calm     32 % 0.0 mm 100.0 W/m2 CLR
16:19 12.8 °C -3.6 °C 1021.6 hPa Calm     32 % 0.0 mm 100.0 W/m2 CLR
16:24 12.2 °C -4.0 °C 1021.6 hPa Calm     32 % 0.0 mm 90.0 W/m2 CLR
16:29 12.2 °C -3.6 °C 1021.6 hPa Calm     33 % 0.0 mm 79.0 W/m2 CLR
16:34 11.7 °C -4.1 °C 1021.6 hPa Calm     33 % 0.0 mm 77.0 W/m2 FEW
16:39 11.7 °C -4.1 °C 1021.6 hPa Calm     33 % 0.0 mm 65.0 W/m2 FEW
16:44 11.1 °C -4.6 °C 1021.6 hPa Calm     33 % 0.0 mm 62.0 W/m2 SCT
16:49 11.1 °C -4.2 °C 1021.6 hPa Calm     34 % 0.0 mm 65.0 W/m2 SCT
16:54 10.6 °C -4.7 °C 1021.6 hPa Calm     34 % 0.0 mm 54.0 W/m2 SCT
16:59 10.6 °C -4.3 °C 1021.6 hPa Calm     35 % 0.0 mm 51.0 W/m2 SCT
17:00 10.0 °C -4.8 °C 1021.6 hPa Calm     35 % 0.0 mm 51.0 W/m2 SCT
17:05 10.0 °C -4.8 °C 1021.6 hPa Calm     35 % 0.0 mm 44.0 W/m2 BKN
17:10 9.4 °C -5.3 °C 1021.6 hPa Calm     35 % 0.0 mm 35.0 W/m2 BKN
17:15 9.4 °C -5.3 °C 1021.6 hPa Calm     35 % 0.0 mm 26.0 W/m2 BKN
17:20 8.9 °C -5.8 °C 1021.6 hPa Calm     35 % 0.0 mm 21.0 W/m2 BKN
17:25 8.3 °C -6.3 °C 1021.6 hPa Calm     35 % 0.0 mm 14.0 W/m2 BKN
17:30 8.3 °C -6.3 °C 1021.6 hPa Calm     35 % 0.0 mm 11.0 W/m2 BKN
17:35 7.8 °C -6.4 °C 1021.6 hPa Calm     36 % 0.0 mm 7.0 W/m2 BKN
17:40 7.2 °C -6.5 °C 1021.6 hPa Calm     37 % 0.0 mm 0.0 W/m2 OVC
17:45 7.2 °C -6.5 °C 1021.6 hPa Calm     37 % 0.0 mm 0.0 W/m2 OVC
17:50 6.7 °C -6.7 °C 1021.6 hPa Calm     38 % 0.0 mm 0.0 W/m2 OVC
17:55 6.7 °C -6.3 °C 1021.6 hPa Calm     39 % 0.0 mm 0.0 W/m2 CLR
18:00 6.7 °C -6.0 °C 1021.6 hPa Calm     40 % 0.0 mm 0.0 W/m2 CLR
18:05 7.2 °C -5.2 °C 1021.6 hPa Calm     41 % 0.0 mm 0.0 W/m2 CLR
18:10 6.7 °C -5.7 °C 1021.6 hPa Calm     41 % 0.0 mm 0.0 W/m2 CLR
18:15 6.7 °C -5.7 °C 1021.6 hPa Calm     41 % 0.0 mm 0.0 W/m2 CLR
18:20 6.1 °C -5.9 °C 1021.9 hPa Calm     42 % 0.0 mm 0.0 W/m2 CLR
18:25 5.6 °C -6.7 °C 1021.9 hPa Calm     41 % 0.0 mm 0.0 W/m2 CLR
18:30 5.6 °C -6.1 °C 1021.9 hPa Calm     43 % 0.0 mm 0.0 W/m2 CLR
18:35 5.0 °C -6.6 °C 1021.9 hPa Calm     43 % 0.0 mm 0.0 W/m2 CLR
18:40 4.4 °C -6.8 °C 1021.9 hPa Calm     44 % 0.0 mm 0.0 W/m2 CLR
18:45 4.4 °C -6.5 °C 1021.9 hPa Calm     45 % 0.0 mm 0.0 W/m2 CLR
18:50 3.9 °C -7.0 °C 1022.2 hPa Calm     45 % 0.0 mm 0.0 W/m2 CLR
18:55 3.9 °C -6.7 °C 1021.9 hPa Calm     46 % 0.0 mm 0.0 W/m2 CLR
19:00 3.9 °C -6.7 °C 1022.2 hPa Calm     46 % 0.0 mm 0.0 W/m2 CLR
19:05 3.3 °C -6.9 °C 1022.2 hPa Calm     47 % 0.0 mm 0.0 W/m2 CLR
19:10 3.3 °C -6.7 °C 1022.2 hPa Calm     48 % 0.0 mm 0.0 W/m2 CLR
19:15 3.3 °C -6.7 °C 1022.2 hPa Calm     48 % 0.0 mm 0.0 W/m2 CLR
19:20 2.8 °C -6.9 °C 1022.2 hPa Calm     49 % 0.0 mm 0.0 W/m2 CLR
19:25 2.8 °C -6.9 °C 1022.2 hPa Calm     49 % 0.0 mm 0.0 W/m2 CLR
19:30 2.2 °C -7.4 °C 1022.2 hPa Calm     49 % 0.0 mm 0.0 W/m2 CLR
19:35 2.2 °C -7.2 °C 1022.2 hPa Calm     50 % 0.0 mm 0.0 W/m2 CLR
19:40 1.7 °C -7.4 °C 1022.6 hPa Calm     51 % 0.0 mm 0.0 W/m2 CLR
19:45 1.7 °C -7.4 °C 1022.6 hPa Calm     51 % 0.0 mm 0.0 W/m2 CLR
19:50 1.7 °C -7.4 °C 1022.6 hPa Calm     51 % 0.0 mm 0.0 W/m2 CLR
19:55 1.7 °C -7.4 °C 1022.6 hPa Calm     51 % 0.0 mm 0.0 W/m2 CLR
20:05 2.2 °C -6.6 °C 1022.6 hPa Calm     52 % 0.0 mm 0.0 W/m2 CLR
20:10 2.2 °C -6.6 °C 1022.6 hPa Calm     52 % 0.0 mm 0.0 W/m2 CLR
20:15 1.7 °C -7.2 °C 1022.6 hPa Calm     52 % 0.0 mm 0.0 W/m2 CLR
20:21 1.7 °C -7.2 °C 1022.6 hPa Calm     52 % 0.0 mm 0.0 W/m2 CLR
20:23 1.7 °C -7.2 °C 1022.9 hPa Calm     52 % 0.0 mm 0.0 W/m2 CLR
20:28 1.7 °C -6.9 °C 1022.6 hPa Calm     53 % 0.0 mm 0.0 W/m2 CLR
20:33 1.7 °C -6.9 °C 1022.6 hPa Calm     53 % 0.0 mm 0.0 W/m2 CLR
20:38 2.2 °C -6.2 °C 1022.6 hPa Calm     54 % 0.0 mm 0.0 W/m2 CLR
20:43 2.2 °C -6.2 °C 1022.9 hPa Calm     54 % 0.0 mm 0.0 W/m2 CLR
20:48 2.2 °C -6.2 °C 1022.9 hPa Calm     54 % 0.0 mm 0.0 W/m2 CLR
20:53 1.7 °C -6.4 °C 1022.9 hPa Calm     55 % 0.0 mm 0.0 W/m2 CLR
20:58 1.7 °C -6.4 °C 1022.9 hPa Calm     55 % 0.0 mm 0.0 W/m2 CLR
21:03 1.7 °C -6.4 °C 1022.9 hPa Calm     55 % 0.0 mm 0.0 W/m2 CLR
21:08 1.7 °C -6.4 °C 1022.9 hPa Calm     55 % 0.0 mm 0.0 W/m2 CLR
21:13 1.7 °C -6.4 °C 1022.9 hPa Calm     55 % 0.0 mm 0.0 W/m2 CLR
21:18 1.1 °C -6.9 °C 1023.2 hPa Calm     55 % 0.0 mm 0.0 W/m2 CLR
21:23 1.1 °C -6.9 °C 1023.2 hPa Calm     55 % 0.0 mm 0.0 W/m2 CLR
21:28 0.6 °C -7.2 °C 1023.2 hPa Calm     56 % 0.0 mm 0.0 W/m2 CLR
21:33 0.6 °C -7.2 °C 1023.2 hPa Calm     56 % 0.0 mm 0.0 W/m2 CLR
21:38 0.6 °C -7.0 °C 1023.2 hPa Calm     57 % 0.0 mm 0.0 W/m2 CLR
21:43 0.6 °C -6.8 °C 1023.2 hPa Calm     58 % 0.0 mm 0.0 W/m2 CLR
21:48 1.1 °C -6.2 °C 1023.6 hPa Calm     58 % 0.0 mm 0.0 W/m2 CLR
21:53 1.1 °C -6.0 °C 1023.6 hPa Calm     59 % 0.0 mm 0.0 W/m2 CLR
21:58 1.1 °C -6.0 °C 1023.6 hPa Calm     59 % 0.0 mm 0.0 W/m2 CLR
22:03 0.6 °C -6.6 °C 1023.6 hPa Calm     59 % 0.0 mm 0.0 W/m2 CLR
22:08 0.6 °C -6.6 °C 1023.6 hPa Calm     59 % 0.0 mm 0.0 W/m2 CLR
22:13 0.0 °C -6.8 °C 1023.2 hPa Calm     60 % 0.0 mm 0.0 W/m2 CLR
22:18 0.6 °C -6.6 °C 1023.2 hPa Calm     59 % 0.0 mm 0.0 W/m2 CLR
22:23 0.0 °C -7.1 °C 1023.2 hPa Calm     59 % 0.0 mm 0.0 W/m2 CLR
22:25 0.0 °C -7.1 °C 1023.2 hPa Calm     59 % 0.0 mm 0.0 W/m2 CLR
22:30 -0.6 °C -7.6 °C 1023.2 hPa Calm     59 % 0.0 mm 0.0 W/m2 CLR
22:35 -0.6 °C -7.6 °C 1023.2 hPa Calm     59 % 0.0 mm 0.0 W/m2 CLR
22:40 -1.1 °C -7.9 °C 1023.2 hPa Calm     60 % 0.0 mm 0.0 W/m2 CLR
22:45 -1.1 °C -7.9 °C 1023.2 hPa Calm     60 % 0.0 mm 0.0 W/m2 CLR
22:50 -0.6 °C -7.4 °C 1023.6 hPa Calm     60 % 0.0 mm 0.0 W/m2 CLR
22:55 -1.1 °C -7.9 °C 1023.6 hPa Calm     60 % 0.0 mm 0.0 W/m2 CLR
23:00 -1.1 °C -7.9 °C 1023.6 hPa Calm     60 % 0.0 mm 0.0 W/m2 CLR
23:05 -1.1 °C -7.9 °C 1023.6 hPa Calm     60 % 0.0 mm 0.0 W/m2 CLR
23:10 -1.1 °C -7.7 °C 1023.2 hPa Calm     61 % 0.0 mm 0.0 W/m2 CLR
23:15 -0.6 °C -7.2 °C 1023.6 hPa Calm     61 % 0.0 mm 0.0 W/m2 CLR
23:20 -0.6 °C -7.2 °C 1023.2 hPa Calm     61 % 0.0 mm 0.0 W/m2 CLR
23:25 -0.6 °C -7.2 °C 1023.2 hPa Calm     61 % 0.0 mm 0.0 W/m2 CLR
23:30 -0.6 °C -7.2 °C 1023.6 hPa Calm     61 % 0.0 mm 0.0 W/m2 CLR
23:35 -0.6 °C -7.2 °C 1023.6 hPa Calm     61 % 0.0 mm 0.0 W/m2 CLR
23:40 -0.6 °C -6.9 °C 1023.2 hPa Calm     62 % 0.0 mm 0.0 W/m2 CLR
23:45 -0.6 °C -6.9 °C 1023.2 hPa Calm     62 % 0.0 mm 0.0 W/m2 CLR
23:50 -0.6 °C -6.7 °C 1023.2 hPa Calm     63 % 0.0 mm 0.0 W/m2 CLR
23:55 -0.6 °C -6.7 °C 1023.2 hPa Calm     63 % 0.0 mm 0.0 W/m2 CLR
Lo Temps de Massalio
Compliments of Weather Underground - 1.25 mb